Time,TemperatureF,DewpointF,PressureIn,WindDirection,WindDirectionDegrees,WindSpeedMPH,WindSpeedGustMPH,Humidity,HourlyPrecipIn,Conditions,Clouds,dailyrainin,SoftwareType,DateUTC
2013-03-11 00:02:00,37.3,32.9,30.05,NNW,334,0.0,0.0,84,0.00,RA,,0.00,WeatherDisplay:10.37,2013-03-11 05:02:00,
2013-03-11 00:07:00,37.2,32.8,30.05,NNW,333,0.0,0.0,84,0.00,RA,,0.00,WeatherDisplay:10.37,2013-03-11 05:07:00,
2013-03-11 00:12:00,37.3,32.9,30.05,NNW,333,1.2,0.0,84,0.00,,,0.00,WeatherDisplay:10.37,2013-03-11 05:12:00,
2013-03-11 00:17:00,37.9,32.9,30.05,NW,309,1.2,0.0,82,0.00,,,0.00,WeatherDisplay:10.37,2013-03-11 05:17:00,
2013-03-11 00:22:00,38.5,32.6,30.05,NW,309,0.0,0.0,79,0.00,,,0.00,WeatherDisplay:10.37,2013-03-11 05:22:00,
2013-03-11 00:27:00,38.8,32.5,30.05,WNW,300,0.0,0.0,78,0.00,,,0.00,WeatherDisplay:10.37,2013-03-11 05:27:00,
2013-03-11 00:32:00,39.1,32.5,30.05,WNW,300,0.0,0.0,77,0.00,,,0.00,WeatherDisplay:10.37,2013-03-11 05:32:00,
2013-03-11 00:37:00,39.2,32.3,30.05,WNW,285,0.0,0.0,76,0.00,,,0.00,WeatherDisplay:10.37,2013-03-11 05:37:00,
2013-03-11 00:42:00,39.5,32.2,30.05,NW,309,2.3,2.3,75,0.00,,,0.00,WeatherDisplay:10.37,2013-03-11 05:42:00,
2013-03-11 00:47:00,39.8,32.2,30.05,WNW,291,1.2,0.0,74,0.00,,,0.00,WeatherDisplay:10.37,2013-03-11 05:47:00,
2013-03-11 00:52:00,39.9,31.9,30.06,WNW,290,1.2,0.0,73,0.00,,,0.00,WeatherDisplay:10.37,2013-03-11 05:52:00,
2013-03-11 00:57:00,39.9,31.9,30.06,WNW,296,1.2,0.0,73,0.00,,,0.00,WeatherDisplay:10.37,2013-03-11 05:57:00,
2013-03-11 01:02:00,39.9,31.9,30.06,WNW,296,0.0,0.0,73,0.00,,,0.00,WeatherDisplay:10.37,2013-03-11 06:02:00,
2013-03-11 01:07:00,39.8,31.5,30.06,WNW,296,1.0,0.0,72,0.00,,,0.00,WeatherDisplay:10.37,2013-03-11 06:07:00,
2013-03-11 01:12:00,39.7,31.4,30.07,WSW,247,0.0,0.0,72,0.00,,,0.00,WeatherDisplay:10.37,2013-03-11 06:12:00,
2013-03-11 01:17:00,39.5,31.6,30.07,WSW,255,0.0,0.0,73,0.00,,,0.00,WeatherDisplay:10.37,2013-03-11 06:17:00,
2013-03-11 01:22:00,39.0,31.4,30.07,WSW,240,0.0,0.0,74,0.00,,,0.00,WeatherDisplay:10.37,2013-03-11 06:22:00,
2013-03-11 01:28:00,38.3,31.4,30.07,WSW,241,0.0,0.0,76,0.00,,,0.00,WeatherDisplay:10.37,2013-03-11 06:28:00,
2013-03-11 01:32:00,37.4,30.8,30.07,WSW,240,0.0,0.0,77,0.00,,,0.00,WeatherDisplay:10.37,2013-03-11 06:32:00,
2013-03-11 01:38:00,36.4,30.5,30.07,WSW,240,0.0,0.0,79,0.00,,,0.00,WeatherDisplay:10.37,2013-03-11 06:38:00,
2013-03-11 01:43:00,35.7,30.1,30.07,WSW,240,0.0,0.0,80,0.00,,,0.00,WeatherDisplay:10.37,2013-03-11 06:43:00,
2013-03-11 01:48:00,35.3,30.7,30.07,WSW,240,0.0,0.0,83,0.00,,,0.00,WeatherDisplay:10.37,2013-03-11 06:48:00,
2013-03-11 01:53:00,35.2,31.1,30.08,NE,52,1.2,1.2,85,0.00,,,0.00,WeatherDisplay:10.37,2013-03-11 06:53:00,
2013-03-11 01:58:00,35.0,31.2,30.08,WNW,284,0.0,0.0,86,0.00,,,0.00,WeatherDisplay:10.37,2013-03-11 06:58:00,
2013-03-11 02:03:00,35.6,31.8,30.08,NE,37,1.2,1.2,86,0.00,,,0.00,WeatherDisplay:10.37,2013-03-11 07:03:00,
2013-03-11 02:08:00,35.5,31.7,30.08,ENE,61,2.3,2.3,86,0.00,,,0.00,WeatherDisplay:10.37,2013-03-11 07:08:00,
2013-03-11 02:13:00,35.2,31.4,30.08,North,3,1.2,1.2,86,0.00,,,0.00,WeatherDisplay:10.37,2013-03-11 07:13:00,
2013-03-11 02:18:00,34.9,31.4,30.09,North,4,0.0,0.0,87,0.00,,,0.00,WeatherDisplay:10.37,2013-03-11 07:18:00,
2013-03-11 02:23:00,34.9,31.7,30.09,NW,311,1.2,1.2,88,0.00,,,0.00,WeatherDisplay:10.37,2013-03-11 07:23:00,
2013-03-11 02:28:00,35.4,32.2,30.09,NNE,27,1.0,1.0,88,0.00,,,0.00,WeatherDisplay:10.37,2013-03-11 07:28:00,
2013-03-11 02:33:00,35.7,32.2,30.09,North,360,1.2,0.0,87,0.00,,,0.00,WeatherDisplay:10.37,2013-03-11 07:33:00,
2013-03-11 02:38:00,35.7,31.9,30.09,North,356,1.2,1.2,86,0.00,,,0.00,WeatherDisplay:10.37,2013-03-11 07:38:00,
2013-03-11 02:43:00,35.6,31.5,30.10,North,354,1.2,0.0,85,0.00,,,0.00,WeatherDisplay:10.37,2013-03-11 07:43:00,
2013-03-11 02:48:00,35.7,31.9,30.09,WNW,290,0.0,0.0,86,0.00,,,0.00,WeatherDisplay:10.37,2013-03-11 07:48:00,
2013-03-11 02:53:00,35.9,31.8,30.09,NNW,333,1.2,0.0,85,0.00,,,0.00,WeatherDisplay:10.37,2013-03-11 07:53:00,
2013-03-11 02:58:00,35.8,31.7,30.10,NNW,333,1.2,1.2,85,0.00,,,0.00,WeatherDisplay:10.37,2013-03-11 07:58:00,
2013-03-11 03:03:00,35.7,31.6,30.10,NNW,333,0.0,0.0,85,0.00,CLR,,0.00,WeatherDisplay:10.37,2013-03-11 08:03:00,
2013-03-11 03:08:00,35.7,31.6,30.10,NNW,333,0.0,0.0,85,0.00,CLR,,0.00,WeatherDisplay:10.37,2013-03-11 08:08:00,
2013-03-11 03:13:00,35.9,31.5,30.09,NNW,333,0.0,0.0,84,0.00,CLR,,0.00,WeatherDisplay:10.37,2013-03-11 08:13:00,
2013-03-11 03:18:00,35.7,31.0,30.10,NNW,333,0.0,0.0,83,0.00,CLR,,0.00,WeatherDisplay:10.37,2013-03-11 08:18:00,
2013-03-11 03:23:00,35.3,30.9,30.09,NNW,333,0.0,0.0,84,0.00,CLR,,0.00,WeatherDisplay:10.37,2013-03-11 08:23:00,
2013-03-11 03:28:00,34.8,30.5,30.10,NNW,333,0.0,0.0,84,0.00,CLR,,0.00,WeatherDisplay:10.37,2013-03-11 08:28:00,
2013-03-11 03:33:00,34.5,30.5,30.10,NNW,333,0.0,0.0,85,0.00,CLR,,0.00,WeatherDisplay:10.37,2013-03-11 08:33:00,
2013-03-11 03:38:00,34.7,30.9,30.09,NNW,333,0.0,0.0,86,0.00,CLR,,0.00,WeatherDisplay:10.37,2013-03-11 08:38:00,
2013-03-11 03:43:00,34.5,30.5,30.09,NNW,333,0.0,0.0,85,0.00,CLR,,0.00,WeatherDisplay:10.37,2013-03-11 08:43:00,
2013-03-11 03:48:00,34.2,30.2,30.09,NNW,333,0.0,0.0,85,0.00,CLR,,0.00,WeatherDisplay:10.37,2013-03-11 08:48:00,
2013-03-11 03:53:00,33.8,30.1,30.09,NNW,333,0.0,0.0,86,0.00,CLR,,0.00,WeatherDisplay:10.37,2013-03-11 08:53:00,
2013-03-11 03:58:00,33.4,29.7,30.09,NNW,333,0.0,0.0,86,0.00,CLR,,0.00,WeatherDisplay:10.37,2013-03-11 08:58:00,
2013-03-11 04:03:00,33.0,29.3,30.08,NNW,333,0.0,0.0,86,0.00,,,0.00,WeatherDisplay:10.37,2013-03-11 09:03:00,
2013-03-11 04:08:00,32.7,29.3,30.08,NNW,333,0.0,0.0,87,0.00,,,0.00,WeatherDisplay:10.37,2013-03-11 09:08:00,
2013-03-11 04:13:00,33.0,30.4,30.09,WNW,297,1.2,1.2,90,0.00,,,0.00,WeatherDisplay:10.37,2013-03-11 09:13:00,
2013-03-11 04:18:00,33.9,31.0,30.08,WNW,290,0.0,0.0,89,0.00,,,0.00,WeatherDisplay:10.37,2013-03-11 09:18:00,
2013-03-11 04:23:00,34.5,31.0,30.08,WNW,284,1.2,1.2,87,0.00,,,0.00,WeatherDisplay:10.37,2013-03-11 09:23:00,
2013-03-11 04:28:00,35.0,30.9,30.08,West,279,1.2,1.2,85,0.00,,,0.00,WeatherDisplay:10.37,2013-03-11 09:28:00,
2013-03-11 04:33:00,35.3,30.9,30.08,WNW,284,0.0,0.0,84,0.00,,,0.00,WeatherDisplay:10.37,2013-03-11 09:33:00,
2013-03-11 04:38:00,35.3,30.7,30.08,WNW,284,0.0,0.0,83,0.00,,,0.00,WeatherDisplay:10.37,2013-03-11 09:38:00,
2013-03-11 04:43:00,35.1,30.8,30.08,WNW,284,0.0,0.0,84,0.00,,,0.00,WeatherDisplay:10.37,2013-03-11 09:43:00,
2013-03-11 04:48:00,34.9,30.6,30.08,WNW,284,0.0,0.0,84,0.00,,,0.00,WeatherDisplay:10.37,2013-03-11 09:48:00,
2013-03-11 04:54:00,34.9,30.8,30.08,WNW,284,0.0,0.0,85,0.00,,,0.00,WeatherDisplay:10.37,2013-03-11 09:54:00,
2013-03-11 04:59:00,34.7,30.4,30.08,WNW,290,1.2,1.2,84,0.00,,,0.00,WeatherDisplay:10.37,2013-03-11 09:59:00,
2013-03-11 05:04:00,34.8,31.0,30.08,West,267,1.2,1.2,86,0.00,,,0.00,WeatherDisplay:10.37,2013-03-11 10:04:00,
2013-03-11 05:09:00,35.2,31.1,30.08,NW,316,1.2,1.2,85,0.00,,,0.00,WeatherDisplay:10.37,2013-03-11 10:09:00,
2013-03-11 05:14:00,35.4,31.0,30.08,WNW,283,1.2,0.0,84,0.00,,,0.00,WeatherDisplay:10.37,2013-03-11 10:14:00,
2013-03-11 05:19:00,35.2,30.9,30.08,WNW,287,0.0,0.0,84,0.00,,,0.00,WeatherDisplay:10.37,2013-03-11 10:19:00,
2013-03-11 05:24:00,34.9,30.6,30.08,WNW,287,0.0,0.0,84,0.00,,,0.00,WeatherDisplay:10.37,2013-03-11 10:24:00,
2013-03-11 05:29:00,34.7,30.4,30.08,WNW,287,0.0,0.0,84,0.00,,,0.00,WeatherDisplay:10.37,2013-03-11 10:29:00,
2013-03-11 05:34:00,34.5,30.2,30.08,WNW,286,0.0,0.0,84,0.00,,,0.00,WeatherDisplay:10.37,2013-03-11 10:34:00,
2013-03-11 05:39:00,34.3,30.3,30.08,WNW,288,1.2,0.0,85,0.00,,,0.00,WeatherDisplay:10.37,2013-03-11 10:39:00,
2013-03-11 05:44:00,34.3,30.0,30.08,WNW,288,0.0,0.0,84,0.00,,,0.00,WeatherDisplay:10.37,2013-03-11 10:44:00,
2013-03-11 05:49:00,34.3,29.7,30.08,West,280,1.2,0.0,83,0.00,,,0.00,WeatherDisplay:10.37,2013-03-11 10:49:00,
2013-03-11 05:54:00,34.3,29.4,30.08,West,280,0.0,0.0,82,0.00,,,0.00,WeatherDisplay:10.37,2013-03-11 10:54:00,
2013-03-11 05:59:00,34.3,29.4,30.08,WNW,283,0.0,0.0,82,0.00,,,0.00,WeatherDisplay:10.37,2013-03-11 10:59:00,
2013-03-11 06:04:00,34.1,29.2,30.08,WNW,285,0.0,0.0,82,0.00,,,0.00,WeatherDisplay:10.37,2013-03-11 11:04:00,
2013-03-11 06:09:00,34.2,29.3,30.08,WNW,288,1.2,0.0,82,0.00,,,0.00,WeatherDisplay:10.37,2013-03-11 11:09:00,
2013-03-11 06:14:00,34.3,29.1,30.08,WNW,290,0.0,0.0,81,0.00,,,0.00,WeatherDisplay:10.37,2013-03-11 11:14:00,
2013-03-11 06:19:00,34.1,28.6,30.08,West,281,0.0,0.0,80,0.00,,,0.00,WeatherDisplay:10.37,2013-03-11 11:19:00,
2013-03-11 06:24:00,34.0,28.5,30.08,West,281,0.0,0.0,80,0.00,,,0.00,WeatherDisplay:10.37,2013-03-11 11:24:00,
2013-03-11 06:29:00,34.0,28.5,30.08,NW,320,2.3,2.3,80,0.00,,,0.00,WeatherDisplay:10.37,2013-03-11 11:29:00,
2013-03-11 06:34:00,34.3,28.2,30.09,West,272,3.5,3.5,78,0.00,,,0.00,WeatherDisplay:10.37,2013-03-11 11:34:00,
2013-03-11 06:39:00,34.5,28.0,30.09,WNW,284,1.2,0.0,77,0.00,,,0.00,WeatherDisplay:10.37,2013-03-11 11:39:00,
2013-03-11 06:44:00,34.5,28.0,30.09,WNW,287,0.0,0.0,77,0.00,,,0.00,WeatherDisplay:10.37,2013-03-11 11:44:00,
2013-03-11 06:49:00,34.4,27.9,30.09,West,281,1.2,1.2,77,0.00,,,0.00,WeatherDisplay:10.37,2013-03-11 11:49:00,
2013-03-11 06:54:00,34.3,27.8,30.09,WNW,294,1.2,1.2,77,0.00,,,0.00,WeatherDisplay:10.37,2013-03-11 11:54:00,
2013-03-11 06:59:00,34.2,27.7,30.09,West,281,1.2,1.2,77,0.00,,,0.00,WeatherDisplay:10.37,2013-03-11 11:59:00,
2013-03-11 07:04:00,34.1,27.6,30.10,WSW,248,1.2,1.2,77,0.00,,,0.00,WeatherDisplay:10.37,2013-03-11 12:04:00,
2013-03-11 07:09:00,34.1,27.6,30.10,WNW,290,2.3,2.3,77,0.00,,,0.00,WeatherDisplay:10.37,2013-03-11 12:09:00,
2013-03-11 07:14:00,34.3,27.5,30.10,West,280,1.2,1.2,76,0.00,,,0.00,WeatherDisplay:10.37,2013-03-11 12:14:00,
2013-03-11 07:19:00,34.5,27.7,30.10,West,267,3.5,3.5,76,0.00,,,0.00,WeatherDisplay:10.37,2013-03-11 12:19:00,
2013-03-11 07:24:00,34.7,27.6,30.10,NW,304,2.3,2.3,75,0.00,,,0.00,WeatherDisplay:10.37,2013-03-11 12:24:00,
2013-03-11 07:29:00,34.7,27.3,30.11,West,260,3.5,3.5,74,0.00,,,0.00,WeatherDisplay:10.37,2013-03-11 12:29:00,
2013-03-11 07:34:00,34.9,27.5,30.11,WNW,294,2.3,2.3,74,0.00,,,0.00,WeatherDisplay:10.37,2013-03-11 12:34:00,
2013-03-11 07:39:00,34.9,27.1,30.11,WNW,301,4.6,4.6,73,0.00,,,0.00,WeatherDisplay:10.37,2013-03-11 12:39:00,
2013-03-11 07:44:00,35.0,27.2,30.11,NW,312,4.6,4.6,73,0.00,,,0.00,WeatherDisplay:10.37,2013-03-11 12:44:00,
2013-03-11 07:49:00,34.9,27.1,30.11,West,279,3.5,3.5,73,0.00,,,0.00,WeatherDisplay:10.37,2013-03-11 12:49:00,
2013-03-11 07:54:00,34.8,26.7,30.11,NNW,342,5.0,5.0,72,0.00,,,0.00,WeatherDisplay:10.37,2013-03-11 12:54:00,
2013-03-11 07:59:00,34.8,26.7,30.11,WNW,287,2.3,2.3,72,0.00,,,0.00,WeatherDisplay:10.37,2013-03-11 12:59:00,
2013-03-11 08:04:00,34.7,26.6,30.11,West,274,5.8,5.8,72,0.00,,,0.00,WeatherDisplay:10.37,2013-03-11 13:04:00,
2013-03-11 08:09:00,34.7,26.6,30.11,WSW,258,3.5,3.5,72,0.00,,,0.00,WeatherDisplay:10.37,2013-03-11 13:09:00,
2013-03-11 08:14:00,34.8,26.7,30.11,West,281,3.0,3.0,72,0.00,,,0.00,WeatherDisplay:10.37,2013-03-11 13:14:00,
2013-03-11 08:19:00,35.2,26.7,30.11,West,270,8.1,8.1,71,0.00,,,0.00,WeatherDisplay:10.37,2013-03-11 13:19:00,
2013-03-11 08:24:00,35.6,26.8,30.11,WSW,252,3.5,3.5,70,0.00,,,0.00,WeatherDisplay:10.37,2013-03-11 13:24:00,
2013-03-11 08:29:00,36.0,26.8,30.11,WNW,294,3.5,3.5,69,0.00,,,0.00,WeatherDisplay:10.37,2013-03-11 13:29:00,
2013-03-11 08:34:00,36.3,27.1,30.11,WNW,294,3.0,3.0,69,0.00,,,0.00,WeatherDisplay:10.37,2013-03-11 13:34:00,
2013-03-11 08:39:00,36.6,26.7,30.11,WNW,285,3.5,3.5,67,0.00,,,0.00,WeatherDisplay:10.37,2013-03-11 13:39:00,
2013-03-11 08:44:00,36.9,27.0,30.11,WNW,294,3.5,3.5,67,0.00,,,0.00,WeatherDisplay:10.37,2013-03-11 13:44:00,
2013-03-11 08:49:00,37.2,26.9,30.12,WNW,286,3.5,3.5,66,0.00,,,0.00,WeatherDisplay:10.37,2013-03-11 13:49:00,
2013-03-11 08:54:00,37.5,26.8,30.11,West,281,6.9,6.9,65,0.00,,,0.00,WeatherDisplay:10.37,2013-03-11 13:54:00,
2013-03-11 08:59:00,37.7,26.6,30.12,NW,304,6.9,6.9,64,0.00,,,0.00,WeatherDisplay:10.37,2013-03-11 13:59:00,
2013-03-11 09:04:00,37.9,26.8,30.12,West,274,3.5,3.5,64,0.00,,,0.00,WeatherDisplay:10.37,2013-03-11 14:04:00,
2013-03-11 09:09:00,38.3,26.8,30.12,WNW,294,3.5,3.5,63,0.00,,,0.00,WeatherDisplay:10.37,2013-03-11 14:09:00,
2013-03-11 09:14:00,38.4,25.7,30.12,WNW,294,5.8,5.8,60,0.00,,,0.00,WeatherDisplay:10.37,2013-03-11 14:14:00,
2013-03-11 09:19:00,38.5,25.4,30.12,West,278,6.9,6.9,59,0.00,,,0.00,WeatherDisplay:10.37,2013-03-11 14:19:00,
2013-03-11 09:24:00,38.8,26.1,30.13,West,273,3.5,3.5,60,0.00,,,0.00,WeatherDisplay:10.37,2013-03-11 14:24:00,
2013-03-11 09:29:00,39.3,25.7,30.13,WNW,298,5.0,8.0,58,0.00,,,0.00,WeatherDisplay:10.37,2013-03-11 14:29:00,
2013-03-11 09:34:00,39.7,25.7,30.13,WNW,301,7.0,7.0,57,0.00,,,0.00,WeatherDisplay:10.37,2013-03-11 14:34:00,
2013-03-11 09:39:00,39.9,25.5,30.13,NNW,330,8.1,8.1,56,0.00,,,0.00,WeatherDisplay:10.37,2013-03-11 14:39:00,
2013-03-11 09:44:00,40.3,26.7,30.13,NW,313,3.0,8.0,58,0.00,,,0.00,WeatherDisplay:10.37,2013-03-11 14:44:00,
2013-03-11 09:49:00,40.7,25.3,30.13,WNW,293,2.0,8.0,54,0.00,,,0.00,WeatherDisplay:10.37,2013-03-11 14:49:00,
2013-03-11 09:54:00,41.0,26.5,30.13,North,354,10.4,10.4,56,0.00,,,0.00,WeatherDisplay:10.37,2013-03-11 14:54:00,
2013-03-11 09:59:00,41.3,25.0,30.13,NW,326,5.0,12.0,52,0.00,,,0.00,WeatherDisplay:10.37,2013-03-11 14:59:00,
2013-03-11 10:04:00,41.7,25.8,30.13,NW,321,5.0,8.0,53,0.00,,,0.00,WeatherDisplay:10.37,2013-03-11 15:04:00,
2013-03-11 10:09:00,42.2,25.8,30.13,West,270,4.6,4.6,52,0.00,,,0.00,WeatherDisplay:10.37,2013-03-11 15:09:00,
2013-03-11 10:14:00,42.5,25.6,30.13,WNW,284,6.9,6.9,51,0.00,,,0.00,WeatherDisplay:10.37,2013-03-11 15:14:00,
2013-03-11 10:19:00,42.8,23.9,30.13,WNW,294,6.9,6.9,47,0.00,,,0.00,WeatherDisplay:10.37,2013-03-11 15:19:00,
2013-03-11 10:24:00,42.7,24.4,30.13,WNW,298,5.0,8.0,48,0.00,,,0.00,WeatherDisplay:10.37,2013-03-11 15:24:00,
2013-03-11 10:29:00,42.8,23.9,30.13,NW,308,3.0,10.0,47,0.00,,,0.00,WeatherDisplay:10.37,2013-03-11 15:29:00,
2013-03-11 10:34:00,43.2,23.3,30.13,WNW,297,9.2,9.2,45,0.00,,,0.00,WeatherDisplay:10.37,2013-03-11 15:34:00,
2013-03-11 10:39:00,43.3,23.9,30.13,WNW,298,3.0,9.0,46,0.00,,,0.00,WeatherDisplay:10.37,2013-03-11 15:39:00,
2013-03-11 10:44:00,43.9,24.4,30.13,West,277,4.6,5.3,46,0.00,,,0.00,WeatherDisplay:10.37,2013-03-11 15:44:00,
2013-03-11 10:49:00,44.1,23.6,30.14,WSW,238,9.2,9.2,44,0.00,,,0.00,WeatherDisplay:10.37,2013-03-11 15:49:00,
2013-03-11 10:54:00,44.4,23.3,30.14,WNW,298,6.0,10.0,43,0.00,,,0.00,WeatherDisplay:10.37,2013-03-11 15:54:00,
2013-03-11 10:59:00,44.4,22.7,30.14,WNW,284,5.0,10.0,42,0.00,,,0.00,WeatherDisplay:10.37,2013-03-11 15:59:00,
2013-03-11 11:04:00,44.7,21.2,30.14,WNW,285,10.4,10.4,39,0.00,,,0.00,WeatherDisplay:10.37,2013-03-11 16:04:00,
2013-03-11 11:09:00,44.8,20.7,30.14,WNW,291,6.0,12.0,38,0.00,,,0.00,WeatherDisplay:10.37,2013-03-11 16:09:00,
2013-03-11 11:14:00,44.9,20.2,30.14,WNW,283,10.4,10.4,37,0.00,,,0.00,WeatherDisplay:10.37,2013-03-11 16:14:00,
2013-03-11 11:19:00,45.2,20.5,30.14,WNW,288,5.0,12.0,37,0.00,,,0.00,WeatherDisplay:10.37,2013-03-11 16:19:00,
2013-03-11 11:24:00,46.0,19.8,30.14,NE,49,9.2,9.2,35,0.00,,,0.00,WeatherDisplay:10.37,2013-03-11 16:24:00,
2013-03-11 11:29:00,46.3,20.1,30.14,NNW,336,11.5,11.5,35,0.00,,,0.00,WeatherDisplay:10.37,2013-03-11 16:29:00,
2013-03-11 11:34:00,46.3,20.1,30.14,NW,307,10.4,10.4,35,0.00,,,0.00,WeatherDisplay:10.37,2013-03-11 16:34:00,
2013-03-11 11:39:00,46.5,21.6,30.14,NW,307,3.0,9.0,37,0.00,,,0.00,WeatherDisplay:10.37,2013-03-11 16:39:00,
2013-03-11 11:44:00,47.2,21.6,30.13,NNW,345,10.4,10.4,36,0.00,,,0.00,WeatherDisplay:10.37,2013-03-11 16:44:00,
2013-03-11 11:49:00,47.7,20.6,30.13,NW,319,3.0,12.0,34,0.00,,,0.00,WeatherDisplay:10.37,2013-03-11 16:49:00,
2013-03-11 11:54:00,48.0,22.3,30.13,WNW,290,6.9,6.9,36,0.00,,,0.00,WeatherDisplay:10.37,2013-03-11 16:54:00,
2013-03-11 11:59:00,48.5,19.9,30.13,North,11,10.4,10.4,32,0.00,,,0.00,WeatherDisplay:10.37,2013-03-11 16:59:00,
2013-03-11 12:04:00,48.2,19.7,30.13,WNW,296,2.0,9.0,32,0.00,,,0.00,WeatherDisplay:10.37,2013-03-11 17:04:00,
2013-03-11 12:09:00,48.5,20.7,30.13,WNW,295,6.0,15.0,33,0.00,,,0.00,WeatherDisplay:10.37,2013-03-11 17:09:00,
2013-03-11 12:14:00,48.7,20.8,30.13,NW,307,11.5,11.5,33,0.00,,,0.00,WeatherDisplay:10.37,2013-03-11 17:14:00,
2013-03-11 12:19:00,48.8,20.9,30.13,North,5,10.4,10.4,33,0.00,,,0.00,WeatherDisplay:10.37,2013-03-11 17:19:00,
2013-03-11 12:25:00,48.9,22.4,30.12,WSW,257,5.8,5.8,35,0.00,,,0.00,WeatherDisplay:10.37,2013-03-11 17:25:00,
2013-03-11 12:30:00,49.5,20.8,30.12,NNE,22,9.2,9.2,32,0.00,,,0.00,WeatherDisplay:10.37,2013-03-11 17:30:00,
2013-03-11 12:35:00,49.6,20.2,30.13,NW,320,13.8,13.8,31,0.00,,,0.00,WeatherDisplay:10.37,2013-03-11 17:35:00,
2013-03-11 12:40:00,50.1,21.3,30.12,West,274,8.1,8.1,32,0.00,,,0.00,WeatherDisplay:10.37,2013-03-11 17:40:00,
2013-03-11 12:45:00,50.4,23.1,30.12,North,6,9.2,9.2,34,0.00,,,0.00,WeatherDisplay:10.37,2013-03-11 17:45:00,
2013-03-11 12:50:00,50.6,21.0,30.12,WNW,290,10.4,10.4,31,0.00,,,0.00,WeatherDisplay:10.37,2013-03-11 17:50:00,
2013-03-11 12:55:00,51.3,19.3,30.12,WNW,284,9.2,9.2,28,0.00,,,0.00,WeatherDisplay:10.37,2013-03-11 17:55:00,
2013-03-11 13:00:00,51.2,20.8,30.11,North,352,9.2,9.2,30,0.00,,,0.00,WeatherDisplay:10.37,2013-03-11 18:00:00,
2013-03-11 13:05:00,51.4,21.7,30.11,WNW,291,8.1,8.1,31,0.00,,,0.00,WeatherDisplay:10.37,2013-03-11 18:05:00,
2013-03-11 13:10:00,52.0,22.3,30.11,North,5,12.7,12.7,31,0.00,,,0.00,WeatherDisplay:10.37,2013-03-11 18:10:00,
2013-03-11 13:15:00,53.0,22.4,30.10,SSW,204,6.9,6.9,30,0.00,,,0.00,WeatherDisplay:10.37,2013-03-11 18:15:00,
2013-03-11 13:20:00,53.3,20.1,30.10,WSW,249,9.2,9.2,27,0.00,,,0.00,WeatherDisplay:10.37,2013-03-11 18:20:00,
2013-03-11 13:25:00,53.4,22.7,30.10,NNW,341,8.1,8.1,30,0.00,,,0.00,WeatherDisplay:10.37,2013-03-11 18:25:00,
2013-03-11 13:34:00,53.4,20.2,30.10,West,276,9.2,9.2,27,0.00,,,0.00,WeatherDisplay:10.37,2013-03-11 18:34:00,
2013-03-11 13:39:00,53.7,23.0,30.10,North,350,8.1,8.1,30,0.00,,,0.00,WeatherDisplay:10.37,2013-03-11 18:39:00,
2013-03-11 13:44:00,54.1,22.5,30.10,North,8,6.0,6.0,29,0.00,,,0.00,WeatherDisplay:10.37,2013-03-11 18:44:00,
2013-03-11 13:49:00,54.2,22.6,30.09,WNW,285,12.7,12.7,29,0.00,,,0.00,WeatherDisplay:10.37,2013-03-11 18:49:00,
2013-03-11 13:54:00,54.5,21.2,30.09,West,278,9.2,9.2,27,0.00,,,0.00,WeatherDisplay:10.37,2013-03-11 18:54:00,
2013-03-11 14:00:00,54.7,21.3,30.09,NNW,339,8.1,8.1,27,0.00,,,0.00,WeatherDisplay:10.37,2013-03-11 19:00:00,
2013-03-11 14:05:00,54.7,19.5,30.09,NNW,345,10.4,10.4,25,0.00,,,0.00,WeatherDisplay:10.37,2013-03-11 19:05:00,
2013-03-11 14:10:00,54.9,20.6,30.09,WNW,303,5.0,14.0,26,0.00,,,0.00,WeatherDisplay:10.37,2013-03-11 19:10:00,
2013-03-11 14:15:00,55.2,19.9,30.08,WNW,291,10.4,10.4,25,0.00,,,0.00,WeatherDisplay:10.37,2013-03-11 19:15:00,
2013-03-11 14:20:00,55.1,20.8,30.08,WNW,291,2.0,12.0,26,0.00,,,0.00,WeatherDisplay:10.37,2013-03-11 19:20:00,
2013-03-11 14:25:00,55.9,21.5,30.07,WNW,300,3.0,9.0,26,0.00,,,0.00,WeatherDisplay:10.37,2013-03-11 19:25:00,
2013-03-11 14:30:00,56.4,21.0,30.07,NW,314,9.2,9.2,25,0.00,,,0.00,WeatherDisplay:10.37,2013-03-11 19:30:00,
2013-03-11 14:35:00,56.3,18.9,30.07,WNW,289,6.0,12.0,23,0.00,,,0.00,WeatherDisplay:10.37,2013-03-11 19:35:00,
2013-03-11 14:40:00,56.0,18.7,30.07,NW,312,9.2,9.2,23,0.00,,,0.00,WeatherDisplay:10.37,2013-03-11 19:40:00,
2013-03-11 14:45:00,56.3,20.9,30.06,WNW,299,2.0,9.0,25,0.00,,,0.00,WeatherDisplay:10.37,2013-03-11 19:45:00,
2013-03-11 14:50:00,57.3,21.8,30.05,NW,324,5.0,10.0,25,0.00,,,0.00,WeatherDisplay:10.37,2013-03-11 19:50:00,
2013-03-11 14:55:00,57.8,19.1,30.05,NW,309,9.2,9.2,22,0.00,,,0.00,WeatherDisplay:10.37,2013-03-11 19:55:00,
2013-03-11 15:00:00,57.7,22.1,30.05,WNW,293,5.0,12.0,25,0.00,,,0.00,WeatherDisplay:10.37,2013-03-11 20:00:00,
2013-03-11 15:04:00,58.0,21.4,30.04,WNW,297,8.1,8.1,24,0.00,,,0.00,WeatherDisplay:10.37,2013-03-11 20:04:00,
2013-03-11 15:10:00,58.2,19.5,30.04,SW,228,9.2,9.2,22,0.00,,,0.00,WeatherDisplay:10.37,2013-03-11 20:10:00,
2013-03-11 15:15:00,58.1,20.4,30.04,WNW,301,6.0,6.0,23,0.00,,,0.00,WeatherDisplay:10.37,2013-03-11 20:15:00,
2013-03-11 15:20:00,58.6,19.8,30.04,NW,309,5.8,5.8,22,0.00,,,0.00,WeatherDisplay:10.37,2013-03-11 20:20:00,
2013-03-11 15:25:00,59.0,20.2,30.04,West,272,8.1,8.1,22,0.00,,,0.00,WeatherDisplay:10.37,2013-03-11 20:25:00,
2013-03-11 15:30:00,59.0,22.2,30.03,NNE,24,13.8,13.8,24,0.00,,,0.00,WeatherDisplay:10.37,2013-03-11 20:30:00,
2013-03-11 15:35:00,58.6,22.8,30.03,NNE,27,9.0,9.0,25,0.00,,,0.00,WeatherDisplay:10.37,2013-03-11 20:35:00,
2013-03-11 15:40:00,58.7,22.0,30.02,SW,233,5.8,5.8,24,0.00,,,0.00,WeatherDisplay:10.37,2013-03-11 20:40:00,
2013-03-11 15:45:00,59.4,21.5,30.02,ENE,64,2.3,2.3,23,0.00,,,0.00,WeatherDisplay:10.37,2013-03-11 20:45:00,
2013-03-11 15:50:00,59.5,22.6,30.02,NNE,12,4.6,4.6,24,0.00,,,0.00,WeatherDisplay:10.37,2013-03-11 20:50:00,
2013-03-11 15:55:00,59.6,20.7,30.02,West,276,5.8,5.8,22,0.00,,,0.00,WeatherDisplay:10.37,2013-03-11 20:55:00,
2013-03-11 16:00:00,60.1,21.1,30.02,NW,307,5.8,5.8,22,0.00,,,0.00,WeatherDisplay:10.37,2013-03-11 21:00:00,
2013-03-11 16:29:00,60.5,21.4,30.01,WNW,282,5.0,5.0,22,0.00,,,0.00,WeatherDisplay:10.37,2013-03-11 21:29:00,
2013-03-11 16:34:00,60.8,21.7,30.01,West,264,5.8,5.8,22,0.00,,,0.00,WeatherDisplay:10.37,2013-03-11 21:34:00,
2013-03-11 16:39:00,60.8,21.7,30.01,WNW,284,6.9,6.9,22,0.00,,,0.00,WeatherDisplay:10.37,2013-03-11 21:39:00,
2013-03-11 16:44:00,61.0,22.9,30.01,West,271,9.2,9.2,23,0.00,,,0.00,WeatherDisplay:10.37,2013-03-11 21:44:00,
2013-03-11 16:49:00,61.6,23.4,30.00,NW,326,5.8,5.8,23,0.00,,,0.00,WeatherDisplay:10.37,2013-03-11 21:49:00,
2013-03-11 16:54:00,61.7,22.4,30.00,West,266,10.4,10.4,22,0.00,,,0.00,WeatherDisplay:10.37,2013-03-11 21:54:00,
2013-03-11 17:00:00,61.8,23.6,30.00,WNW,293,9.2,9.2,23,0.00,,,0.00,WeatherDisplay:10.37,2013-03-11 22:00:00,
2013-03-11 17:05:00,61.8,23.6,30.00,WNW,301,2.0,8.0,23,0.00,,,0.00,WeatherDisplay:10.37,2013-03-11 22:05:00,
2013-03-11 17:10:00,61.7,23.5,30.00,WNW,299,5.0,9.0,23,0.00,,,0.00,WeatherDisplay:10.37,2013-03-11 22:10:00,
2013-03-11 17:15:00,61.6,25.4,30.00,WNW,297,7.0,7.0,25,0.00,,,0.00,WeatherDisplay:10.37,2013-03-11 22:15:00,
2013-03-11 17:20:00,61.6,23.4,30.00,West,280,5.0,8.0,23,0.00,,,0.00,WeatherDisplay:10.37,2013-03-11 22:20:00,
2013-03-11 17:25:00,61.6,24.4,30.00,WNW,291,1.0,9.0,24,0.00,,,0.00,WeatherDisplay:10.37,2013-03-11 22:25:00,
2013-03-11 17:30:00,61.8,23.6,30.00,WNW,291,5.0,10.0,23,0.00,,,0.00,WeatherDisplay:10.37,2013-03-11 22:30:00,
2013-03-11 17:35:00,61.8,23.5,30.00,WNW,303,6.0,10.0,23,0.00,,,0.00,WeatherDisplay:10.37,2013-03-11 22:35:00,
2013-03-11 17:40:00,61.6,23.4,30.00,NW,304,5.0,7.0,23,0.00,,,0.00,WeatherDisplay:10.37,2013-03-11 22:40:00,
2013-03-11 17:45:00,61.5,24.3,30.00,NW,305,5.0,9.0,24,0.00,,,0.00,WeatherDisplay:10.37,2013-03-11 22:45:00,
2013-03-11 17:49:00,61.5,25.3,29.99,NW,311,5.8,5.8,25,0.00,,,0.00,WeatherDisplay:10.37,2013-03-11 22:49:00,
2013-03-11 17:55:00,61.6,24.4,29.99,WNW,294,6.9,6.9,24,0.00,,,0.00,WeatherDisplay:10.37,2013-03-11 22:55:00,
2013-03-11 18:00:00,61.9,24.7,29.99,NW,308,2.0,7.0,24,0.00,,,0.00,WeatherDisplay:10.37,2013-03-11 23:00:00,
2013-03-11 18:04:00,62.0,23.7,29.99,WNW,288,4.0,4.3,23,0.00,,,0.00,WeatherDisplay:10.37,2013-03-11 23:04:00,
2013-03-11 18:10:00,62.0,24.8,30.00,WNW,291,3.0,6.0,24,0.00,,,0.00,WeatherDisplay:10.37,2013-03-11 23:10:00,
2013-03-11 18:15:00,61.8,24.6,30.00,WNW,301,1.0,9.0,24,0.00,,,0.00,WeatherDisplay:10.37,2013-03-11 23:15:00,
2013-03-11 18:20:00,61.9,24.7,30.00,WNW,300,2.0,6.0,24,0.00,,,0.00,WeatherDisplay:10.37,2013-03-11 23:20:00,
2013-03-11 18:25:00,61.9,24.7,30.00,WNW,291,3.5,3.5,24,0.00,,,0.00,WeatherDisplay:10.37,2013-03-11 23:25:00,
2013-03-11 18:30:00,61.9,24.7,30.00,WNW,295,2.0,6.0,24,0.00,,,0.00,WeatherDisplay:10.37,2013-03-11 23:30:00,
2013-03-11 18:34:00,61.6,24.4,30.00,WNW,300,4.6,4.6,24,0.00,,,0.00,WeatherDisplay:10.37,2013-03-11 23:34:00,
2013-03-11 18:40:00,61.5,24.3,30.00,NW,308,4.6,4.6,24,0.00,,,0.00,WeatherDisplay:10.37,2013-03-11 23:40:00,
2013-03-11 18:45:00,61.4,24.2,30.00,WNW,301,2.0,6.0,24,0.00,,,0.00,WeatherDisplay:10.37,2013-03-11 23:45:00,
2013-03-11 18:50:00,61.3,25.1,30.00,WNW,303,2.0,5.0,25,0.00,,,0.00,WeatherDisplay:10.37,2013-03-11 23:50:00,
2013-03-11 18:55:00,61.2,25.1,30.00,WSW,248,1.2,1.2,25,0.00,,,0.00,WeatherDisplay:10.37,2013-03-11 23:55:00,
2013-03-11 19:00:00,61.3,25.1,29.99,WNW,297,1.0,3.0,25,0.00,,,0.00,WeatherDisplay:10.37,2013-03-12 00:00:00,
2013-03-11 19:05:00,60.7,25.6,30.00,NW,326,2.3,2.3,26,0.00,,,0.00,WeatherDisplay:10.37,2013-03-12 00:05:00,
2013-03-11 19:10:00,60.5,25.4,30.00,NW,326,0.0,1.0,26,0.00,,,0.00,WeatherDisplay:10.37,2013-03-12 00:10:00,
2013-03-11 19:14:00,60.3,25.2,29.99,North,4,2.3,2.3,26,0.00,,,0.00,WeatherDisplay:10.37,2013-03-12 00:14:00,
2013-03-11 19:20:00,59.7,24.7,29.99,WNW,284,2.3,2.3,26,0.00,,,0.00,WeatherDisplay:10.37,2013-03-12 00:20:00,
2013-03-11 19:25:00,59.2,25.2,29.99,NW,304,0.0,2.0,27,0.00,,,0.00,WeatherDisplay:10.37,2013-03-12 00:25:00,
2013-03-11 19:30:00,58.2,25.2,29.99,NW,321,0.0,0.0,28,0.00,,,0.00,WeatherDisplay:10.37,2013-03-12 00:30:00,
2013-03-11 19:35:00,57.7,24.7,29.99,NW,322,0.0,0.0,28,0.00,,,0.00,WeatherDisplay:10.37,2013-03-12 00:35:00,
2013-03-11 19:40:00,57.2,26.0,29.99,NW,323,0.0,0.0,30,0.00,,,0.00,WeatherDisplay:10.37,2013-03-12 00:40:00,
2013-03-11 19:44:00,56.4,26.1,29.99,NW,323,0.0,0.0,31,0.00,,,0.00,WeatherDisplay:10.37,2013-03-12 00:44:00,
2013-03-11 19:50:00,55.7,27.0,29.99,NW,323,0.0,0.0,33,0.00,,,0.00,WeatherDisplay:10.37,2013-03-12 00:50:00,
2013-03-11 19:55:00,55.0,26.4,30.00,NW,323,0.0,1.0,33,0.00,,,0.00,WeatherDisplay:10.37,2013-03-12 00:55:00,
2013-03-11 20:00:00,54.4,28.0,29.99,NW,323,0.0,0.0,36,0.00,,,0.00,WeatherDisplay:10.37,2013-03-12 01:00:00,
2013-03-11 20:05:00,53.5,26.5,30.00,NW,323,0.0,0.0,35,0.00,,,0.00,WeatherDisplay:10.37,2013-03-12 01:05:00,
2013-03-11 20:10:00,52.5,28.2,30.00,NW,323,0.0,0.0,39,0.00,,,0.00,WeatherDisplay:10.37,2013-03-12 01:10:00,
2013-03-11 20:15:00,51.2,28.9,30.00,NW,323,0.0,0.0,42,0.00,,,0.00,WeatherDisplay:10.37,2013-03-12 01:15:00,
2013-03-11 20:20:00,50.1,26.7,30.00,NW,323,0.0,0.0,40,0.00,,,0.00,WeatherDisplay:10.37,2013-03-12 01:20:00,
2013-03-11 20:25:00,49.3,27.7,30.00,NW,323,0.0,0.0,43,0.00,,,0.00,WeatherDisplay:10.37,2013-03-12 01:25:00,
2013-03-11 20:30:00,49.1,30.2,30.00,NW,315,0.0,0.0,48,0.00,,,0.00,WeatherDisplay:10.37,2013-03-12 01:30:00,
2013-03-11 20:35:00,49.0,32.6,30.00,NW,315,0.0,0.0,53,0.00,,,0.00,WeatherDisplay:10.37,2013-03-12 01:35:00,
2013-03-11 20:39:00,48.3,30.5,30.00,NW,314,0.0,0.0,50,0.00,,,0.00,WeatherDisplay:10.37,2013-03-12 01:39:00,
2013-03-11 20:45:00,47.4,30.2,30.01,NW,315,0.0,0.0,51,0.00,,,0.00,WeatherDisplay:10.37,2013-03-12 01:45:00,
2013-03-11 20:50:00,46.8,31.5,30.01,NW,315,0.0,0.0,55,0.00,,,0.00,WeatherDisplay:10.37,2013-03-12 01:50:00,
2013-03-11 20:54:00,46.7,31.8,30.01,North,352,1.0,1.0,56,0.00,,,0.00,WeatherDisplay:10.37,2013-03-12 01:54:00,
2013-03-11 21:00:00,46.7,31.4,30.01,NNW,338,1.0,1.0,55,0.00,,,0.00,WeatherDisplay:10.37,2013-03-12 02:00:00,
2013-03-11 21:05:00,46.9,32.9,30.01,North,356,0.0,1.0,58,0.00,,,0.00,WeatherDisplay:10.37,2013-03-12 02:05:00,
2013-03-11 21:09:00,46.8,31.9,30.01,North,354,1.2,0.0,56,0.00,,,0.00,WeatherDisplay:10.37,2013-03-12 02:09:00,
2013-03-11 21:15:00,46.8,32.4,30.01,North,354,0.0,0.0,57,0.00,,,0.00,WeatherDisplay:10.37,2013-03-12 02:15:00,
2013-03-11 21:20:00,46.7,31.8,30.02,North,355,1.0,2.0,56,0.00,,,0.00,WeatherDisplay:10.37,2013-03-12 02:20:00,
2013-03-11 21:25:00,47.6,31.3,30.01,North,360,1.0,1.0,53,0.00,,,0.00,WeatherDisplay:10.37,2013-03-12 02:25:00,
2013-03-11 21:30:00,49.0,31.2,30.02,NNE,29,1.2,1.2,50,0.00,,,0.00,WeatherDisplay:10.37,2013-03-12 02:30:00,
2013-03-11 21:35:00,49.5,31.6,30.02,NNE,23,0.0,2.0,50,0.00,,,0.00,WeatherDisplay:10.37,2013-03-12 02:35:00,
2013-03-11 21:40:00,49.7,30.8,30.02,NE,40,1.2,1.2,48,0.00,,,0.00,WeatherDisplay:10.37,2013-03-12 02:40:00,
2013-03-11 21:45:00,49.8,30.9,30.02,NE,39,0.0,1.0,48,0.00,,,0.00,WeatherDisplay:10.37,2013-03-12 02:45:00,
2013-03-11 21:49:00,49.9,30.5,30.02,NE,39,2.3,2.3,47,0.00,,,0.00,WeatherDisplay:10.37,2013-03-12 02:49:00,
2013-03-11 21:55:00,49.9,30.5,30.02,NE,39,0.0,0.0,47,0.00,,,0.00,WeatherDisplay:10.37,2013-03-12 02:55:00,
2013-03-11 22:00:00,49.9,29.9,30.03,NE,48,1.0,2.0,46,0.00,,,0.00,WeatherDisplay:10.37,2013-03-12 03:00:00,
2013-03-11 22:04:00,50.0,29.5,30.03,NE,43,1.2,0.0,45,0.00,,,0.00,WeatherDisplay:10.37,2013-03-12 03:04:00,
2013-03-11 22:10:00,49.9,29.4,30.03,NE,42,0.0,1.0,45,0.00,,,0.00,WeatherDisplay:10.37,2013-03-12 03:10:00,
2013-03-11 22:15:00,49.8,29.3,30.03,NE,43,0.0,0.0,45,0.00,,,0.00,WeatherDisplay:10.37,2013-03-12 03:15:00,
2013-03-11 22:20:00,49.1,29.2,30.03,NE,43,0.0,0.0,46,0.00,,,0.00,WeatherDisplay:10.37,2013-03-12 03:20:00,
2013-03-11 22:25:00,48.1,28.3,30.03,NE,43,0.0,0.0,46,0.00,,,0.00,WeatherDisplay:10.37,2013-03-12 03:25:00,
2013-03-11 22:30:00,47.0,31.2,30.03,NE,43,0.0,0.0,54,0.00,,,0.00,WeatherDisplay:10.37,2013-03-12 03:30:00,
2013-03-11 22:35:00,46.2,31.4,30.03,NE,43,0.0,0.0,56,0.00,,,0.00,WeatherDisplay:10.37,2013-03-12 03:35:00,
2013-03-11 22:40:00,45.5,31.6,30.03,NE,43,0.0,0.0,58,0.00,,,0.00,WeatherDisplay:10.37,2013-03-12 03:40:00,
2013-03-11 22:44:00,44.8,30.5,30.03,NE,41,0.0,0.0,57,0.00,,,0.00,WeatherDisplay:10.37,2013-03-12 03:44:00,
2013-03-11 22:50:00,44.7,30.4,30.03,NE,41,1.2,0.0,57,0.00,,,0.00,WeatherDisplay:10.37,2013-03-12 03:50:00,
2013-03-11 22:55:00,44.4,32.6,30.04,NE,41,0.0,0.0,63,0.00,,,0.00,WeatherDisplay:10.37,2013-03-12 03:55:00,
2013-03-11 22:59:00,44.4,31.4,30.04,NE,41,0.0,0.0,60,0.00,,,0.00,WeatherDisplay:10.37,2013-03-12 03:59:00,
2013-03-11 23:00:00,44.5,31.5,30.04,NE,41,0.0,0.0,60,0.00,CLR,,0.00,WeatherDisplay:10.37,2013-03-12 04:00:00,
2013-03-11 23:05:00,45.1,31.2,30.04,NE,42,0.0,0.0,58,0.00,CLR,,0.00,WeatherDisplay:10.37,2013-03-12 04:05:00,
2013-03-11 23:10:00,44.9,31.0,30.04,NE,43,0.0,0.0,58,0.00,CLR,,0.00,WeatherDisplay:10.37,2013-03-12 04:10:00,
2013-03-11 23:15:00,44.5,31.1,30.04,NE,43,0.0,0.0,59,0.00,CLR,,0.00,WeatherDisplay:10.37,2013-03-12 04:15:00,
2013-03-11 23:20:00,44.0,31.0,30.04,NE,41,0.0,0.0,60,0.00,CLR,,0.00,WeatherDisplay:10.37,2013-03-12 04:20:00,
2013-03-11 23:25:00,43.5,30.9,30.04,NE,41,0.0,0.0,61,0.00,CLR,,0.00,WeatherDisplay:10.37,2013-03-12 04:25:00,
2013-03-11 23:30:00,42.9,31.2,30.04,NE,41,0.0,0.0,63,0.00,CLR,,0.00,WeatherDisplay:10.37,2013-03-12 04:30:00,
2013-03-11 23:35:00,43.4,31.6,30.04,NE,41,0.0,0.0,63,0.00,CLR,,0.00,WeatherDisplay:10.37,2013-03-12 04:35:00,
2013-03-11 23:40:00,43.6,31.4,30.05,NE,41,0.0,0.0,62,0.00,CLR,,0.00,WeatherDisplay:10.37,2013-03-12 04:40:00,
2013-03-11 23:45:00,43.2,30.6,30.04,NE,41,0.0,0.0,61,0.00,CLR,,0.00,WeatherDisplay:10.37,2013-03-12 04:45:00,
2013-03-11 23:50:00,42.8,31.5,30.04,NE,41,0.0,0.0,64,0.00,CLR,,0.00,WeatherDisplay:10.37,2013-03-12 04:50:00,
2013-03-11 23:55:00,42.7,35.0,30.04,NE,41,0.0,0.0,74,0.00,CLR,,0.00,WeatherDisplay:10.37,2013-03-12 04:55:00,